Time;durP1;ratioP1;P1;durP2;ratioP2;P2;SDS_P1;SDS_P2;PMS_P1;PMS_P2;Temp;Humidity;BMP_temperature;BMP_pressure;BME280_temperature;BME280_humidity;BME280_pressure;Samples;Min_cycle;Max_cycle;Signal;HPM_P1;HPM_P2
2023/05/11 00:02:04;;;;;;;17.42;5.93;;;10.40;78.60;;;;;;4913842;29;20071;-76
2023/05/11 00:04:31;;;;;;;17.08;5.43;;;10.40;79.30;;;;;;4913351;29;20573;-76
2023/05/11 00:06:59;;;;;;;30.98;6.85;;;10.30;81.00;;;;;;4914584;29;20086;-76
2023/05/11 00:09:26;;;;;;;17.63;5.63;;;10.40;80.20;;;;;;4913830;29;20055;-76
2023/05/11 00:11:53;;;;;;;23.60;5.85;;;10.30;79.90;;;;;;4912224;29;20079;-76
2023/05/11 00:14:20;;;;;;;35.10;6.50;;;10.40;81.40;;;;;;4914674;29;20056;-76
2023/05/11 00:16:49;;;;;;;32.60;6.97;;;10.30;80.90;;;;;;4912671;29;20048;-76
2023/05/11 00:19:16;;;;;;;36.60;7.93;;;10.40;81.30;;;;;;4914245;29;20064;-76
2023/05/11 00:21:43;;;;;;;26.45;6.85;;;10.30;82.00;;;;;;4912212;29;20059;-74
2023/05/11 00:24:11;;;;;;;28.08;6.65;;;10.30;82.60;;;;;;4912155;29;20060;-76
2023/05/11 00:26:38;;;;;;;36.78;7.45;;;10.30;83.50;;;;;;4912587;29;20075;-76
2023/05/11 00:29:06;;;;;;;31.75;6.75;;;10.30;84.70;;;;;;4914738;29;20060;-76
2023/05/11 00:31:33;;;;;;;27.70;5.93;;;10.30;85.90;;;;;;4911689;29;20568;-76
2023/05/11 00:34:02;;;;;;;34.53;6.57;;;10.30;87.30;;;;;;4915046;29;20056;-76
2023/05/11 00:36:29;;;;;;;25.75;6.95;;;10.30;89.30;;;;;;4911780;29;20052;-77
2023/05/11 00:38:57;;;;;;;26.52;6.50;;;10.30;90.40;;;;;;4896866;29;20056;-75
2023/05/11 00:41:24;;;;;;;28.17;6.22;;;10.30;91.40;;;;;;4908888;29;20422;-76
2023/05/11 00:43:51;;;;;;;27.48;6.75;;;10.30;93.80;;;;;;4920976;29;20107;-76
2023/05/11 00:46:18;;;;;;;25.83;6.68;;;10.20;95.80;;;;;;4913712;29;20044;-70
2023/05/11 00:48:46;;;;;;;33.17;6.82;;;10.10;98.30;;;;;;4895155;29;20056;-72
2023/05/11 00:51:15;;;;;;;28.92;7.13;;;10.10;99.60;;;;;;4927269;29;20044;-70
2023/05/11 00:53:43;;;;;;;34.35;7.28;;;10.00;99.90;;;;;;4925481;29;20048;-68
2023/05/11 00:56:10;;;;;;;34.63;7.22;;;9.90;99.90;;;;;;4912236;29;20080;-70
2023/05/11 00:58:37;;;;;;;30.13;8.02;;;9.80;99.90;;;;;;4912368;29;20055;-70
2023/05/11 01:01:04;;;;;;;35.90;6.85;;;9.70;99.90;;;;;;4914547;29;20509;-70
2023/05/11 01:03:32;;;;;;;33.40;7.60;;;9.70;99.90;;;;;;4912554;29;20064;-70
2023/05/11 01:06:07;;;;;;;22.33;6.03;;;9.60;99.90;;;;;;4913957;29;20055;-70
2023/05/11 01:08:42;;;;;;;22.98;7.47;;;9.60;99.90;;;;;;4894844;29;20076;-70
2023/05/11 01:11:16;;;;;;;28.48;7.63;;;9.50;99.90;;;;;;4911333;29;20048;-70
2023/05/11 01:13:48;;;;;;;44.78;9.05;;;9.40;99.90;;;;;;4916356;29;20112;-70
2023/05/11 01:16:20;;;;;;;31.48;8.52;;;9.40;99.90;;;;;;4916266;29;20094;-70
2023/05/11 01:19:02;;;;;;;22.98;7.25;;;9.40;99.90;;;;;;4916598;29;20059;-70
2023/05/11 01:21:33;;;;;;;25.95;9.35;;;9.50;99.90;;;;;;4920373;29;20131;-71
2023/05/11 01:24:29;;;;;;;30.83;8.02;;;9.50;99.90;;;;;;4917174;29;20076;-70
2023/05/11 01:27:27;;;;;;;39.28;8.30;;;9.50;99.90;;;;;;4914680;29;20462;-70
2023/05/11 01:30:28;;;;;;;33.60;7.50;;;9.40;99.90;;;;;;4908767;29;20056;-70
2023/05/11 01:33:00;;;;;;;39.42;8.90;;;9.40;99.90;;;;;;4899798;29;20048;-70
2023/05/11 01:35:30;;;;;;;33.15;9.52;;;9.30;99.90;;;;;;4914870;29;20047;-70
2023/05/11 01:37:59;;;;;;;26.98;8.23;;;9.20;99.90;;;;;;4917369;29;20525;-70
2023/05/11 01:40:30;;;;;;;30.85;9.85;;;9.20;99.90;;;;;;4916401;29;20048;-70
2023/05/11 01:43:02;;;;;;;36.50;9.60;;;9.20;99.90;;;;;;4915786;29;20133;-71
2023/05/11 01:45:35;;;;;;;38.60;10.68;;;9.20;99.90;;;;;;4914980;29;20064;-70
2023/05/11 01:48:05;;;;;;;36.67;9.02;;;9.10;99.90;;;;;;4916529;29;20142;-70
2023/05/11 01:50:33;;;;;;;31.17;8.82;;;9.10;99.90;;;;;;4915773;29;20052;-70
2023/05/11 01:53:02;;;;;;;27.70;9.23;;;9.10;99.90;;;;;;4914144;29;20114;-70
2023/05/11 01:55:33;;;;;;;30.60;8.80;;;9.10;99.90;;;;;;4916040;29;20043;-70
2023/05/11 01:58:03;;;;;;;31.17;9.25;;;9.00;99.90;;;;;;4915565;29;20048;-70
2023/05/11 02:00:33;;;;;;;44.75;11.40;;;9.00;99.90;;;;;;4915324;29;20407;-77
2023/05/11 02:03:03;;;;;;;31.63;10.70;;;9.00;99.90;;;;;;4917110;29;20127;-76
2023/05/11 02:05:33;;;;;;;29.77;9.68;;;9.00;99.90;;;;;;4906574;29;20521;-76
2023/05/11 02:08:04;;;;;;;36.08;9.73;;;9.00;99.90;;;;;;4912089;29;20056;-76
2023/05/11 02:10:33;;;;;;;39.20;10.27;;;9.00;99.90;;;;;;4909867;29;20052;-77
2023/05/11 02:13:02;;;;;;;31.73;10.43;;;9.00;99.90;;;;;;4931625;29;20051;-77
2023/05/11 02:15:33;;;;;;;33.63;9.10;;;9.00;99.90;;;;;;4915146;29;20150;-77
2023/05/11 02:18:03;;;;;;;28.83;10.57;;;9.00;99.90;;;;;;4908394;29;20055;-76
2023/05/11 02:20:31;;;;;;;40.83;11.18;;;9.00;99.90;;;;;;4912351;29;20040;-77
2023/05/11 02:23:00;;;;;;;38.08;10.68;;;9.00;99.90;;;;;;4915189;29;20048;-75
2023/05/11 02:25:29;;;;;;;36.03;11.43;;;9.00;99.90;;;;;;4914326;29;20143;-75
2023/05/11 02:27:56;;;;;;;37.15;10.30;;;9.10;99.90;;;;;;4916231;29;20040;-76
2023/05/11 02:30:28;;;;;;;24.13;10.02;;;9.10;99.90;;;;;;4899082;29;20048;-76
2023/05/11 02:32:59;;;;;;;34.83;10.77;;;9.10;99.90;;;;;;4912961;29;20112;-76
2023/05/11 02:35:29;;;;;;;37.05;11.07;;;9.10;99.90;;;;;;4914364;29;20059;-76
2023/05/11 02:38:02;;;;;;;23.42;11.02;;;9.10;99.90;;;;;;4912881;29;20070;-78
2023/05/11 02:40:34;;;;;;;32.55;11.60;;;9.10;99.90;;;;;;4915253;29;20123;-77
2023/05/11 02:43:08;;;;;;;30.67;11.95;;;9.10;99.90;;;;;;4912254;29;20048;-76
2023/05/11 02:45:42;;;;;;;31.10;12.10;;;9.00;99.90;;;;;;4914012;29;20037;-76
2023/05/11 02:48:19;;;;;;;36.63;11.65;;;9.00;99.90;;;;;;4912353;29;20048;-75
2023/05/11 02:50:48;;;;;;;31.77;12.98;;;9.00;99.90;;;;;;4912293;29;20059;-77
2023/05/11 02:53:17;;;;;;;31.73;12.18;;;9.00;99.90;;;;;;4893955;29;20044;-76
2023/05/11 02:55:46;;;;;;;38.40;12.27;;;9.00;99.90;;;;;;4914358;29;20052;-76
2023/05/11 02:58:13;;;;;;;37.47;12.07;;;9.10;99.90;;;;;;4914638;29;20454;-76
2023/05/11 03:00:45;;;;;;;41.70;11.77;;;9.10;99.90;;;;;;4913397;29;20044;-76
2023/05/11 03:03:14;;;;;;;48.20;11.95;;;9.10;99.90;;;;;;4914546;29;20142;-77
2023/05/11 03:05:41;;;;;;;49.15;11.75;;;9.10;99.90;;;;;;4913804;29;20054;-77
2023/05/11 03:08:09;;;;;;;36.00;11.95;;;9.10;99.90;;;;;;4915206;29;20548;-76
2023/05/11 03:10:36;;;;;;;47.05;12.27;;;9.10;99.90;;;;;;4913642;29;20465;-75
2023/05/11 03:13:05;;;;;;;37.38;12.68;;;9.10;99.90;;;;;;4914529;29;20576;-76
2023/05/11 03:15:33;;;;;;;41.70;12.30;;;9.10;99.90;;;;;;4929193;29;20509;-76
2023/05/11 03:18:04;;;;;;;37.20;12.38;;;9.10;99.90;;;;;;4909248;29;20147;-76
2023/05/11 03:20:35;;;;;;;34.03;12.73;;;9.10;99.90;;;;;;4925173;29;20147;-77
2023/05/11 03:23:05;;;;;;;38.90;12.43;;;9.10;99.90;;;;;;4913988;29;20517;-77
2023/05/11 03:25:32;;;;;;;42.03;13.55;;;9.20;99.90;;;;;;4930650;29;20056;-76
2023/05/11 03:28:01;;;;;;;105.07;14.98;;;9.20;99.90;;;;;;4910499;29;20104;-76
2023/05/11 03:30:31;;;;;;;53.28;13.85;;;9.20;99.90;;;;;;4892102;29;20047;-76
2023/05/11 03:32:59;;;;;;;61.33;13.85;;;9.20;99.90;;;;;;4897674;29;20052;-76
2023/05/11 03:35:28;;;;;;;41.15;12.75;;;9.30;99.90;;;;;;4895179;29;20046;-76
2023/05/11 03:37:58;;;;;;;38.95;13.52;;;9.30;99.90;;;;;;4907818;29;20055;-75
2023/05/11 03:40:28;;;;;;;42.95;12.93;;;9.40;99.90;;;;;;4910780;29;20048;-76
2023/05/11 03:42:58;;;;;;;51.58;13.77;;;9.40;99.90;;;;;;4922016;29;20052;-77
2023/05/11 03:45:28;;;;;;;41.83;12.82;;;9.50;99.90;;;;;;4913795;29;20142;-77
2023/05/11 03:47:57;;;;;;;49.78;12.80;;;9.50;99.90;;;;;;4910462;29;20056;-76
2023/05/11 03:50:24;;;;;;;42.58;13.05;;;9.60;99.90;;;;;;4910112;29;20574;-76
2023/05/11 03:52:52;;;;;;;42.63;12.52;;;9.70;99.90;;;;;;4902536;29;20059;-76
2023/05/11 03:55:23;;;;;;;43.50;12.05;;;9.80;99.90;;;;;;4897791;29;20041;-76
2023/05/11 03:57:52;;;;;;;37.72;13.23;;;9.90;99.90;;;;;;4929065;29;20052;-76
2023/05/11 04:00:19;;;;;;;51.30;13.35;;;10.00;99.90;;;;;;4913692;29;20044;-76
2023/05/11 04:02:48;;;;;;;48.15;13.35;;;10.10;99.90;;;;;;4913439;29;20051;-76
2023/05/11 04:05:17;;;;;;;38.47;12.93;;;10.10;99.90;;;;;;4916192;29;20103;-76
2023/05/11 04:07:46;;;;;;;42.78;12.93;;;10.20;99.90;;;;;;4913064;29;20461;-77
2023/05/11 04:10:13;;;;;;;32.63;12.57;;;10.30;99.90;;;;;;4914740;29;20044;-76
2023/05/11 04:12:42;;;;;;;38.78;12.18;;;10.40;99.90;;;;;;4894434;29;20049;-77
2023/05/11 04:15:10;;;;;;;39.80;12.45;;;10.60;99.90;;;;;;4918341;29;20044;-77
2023/05/11 04:17:37;;;;;;;34.50;12.38;;;10.70;99.90;;;;;;4925206;29;20127;-76
2023/05/11 04:20:07;;;;;;;23.67;12.95;;;10.80;99.90;;;;;;4912720;29;20043;-77
2023/05/11 04:22:34;;;;;;;33.40;13.02;;;10.90;99.90;;;;;;4894856;29;20084;-76
2023/05/11 04:25:03;;;;;;;28.38;12.65;;;11.00;99.90;;;;;;4903621;29;20055;-77
2023/05/11 04:27:32;;;;;;;35.70;14.57;;;11.20;99.90;;;;;;4912557;29;20111;-77
2023/05/11 04:30:02;;;;;;;37.53;13.10;;;11.30;99.90;;;;;;4913580;29;20139;-70
2023/05/11 04:32:35;;;;;;;36.55;12.95;;;11.40;99.90;;;;;;4908268;29;20095;-71
2023/05/11 04:35:02;;;;;;;32.50;11.95;;;11.50;99.90;;;;;;4895863;29;20052;-72
2023/05/11 04:37:34;;;;;;;33.10;12.43;;;11.60;99.90;;;;;;4909255;29;20080;-71
2023/05/11 04:40:04;;;;;;;31.02;13.23;;;11.70;99.90;;;;;;4917256;29;20413;-72
2023/05/11 04:42:38;;;;;;;27.90;11.93;;;11.80;99.90;;;;;;4909173;29;20048;-73
2023/05/11 04:45:10;;;;;;;29.27;12.57;;;11.90;99.90;;;;;;4908435;29;20047;-72
2023/05/11 04:47:41;;;;;;;32.85;13.05;;;12.10;99.90;;;;;;4910284;29;20529;-75
2023/05/11 04:50:10;;;;;;;29.20;13.57;;;12.20;99.90;;;;;;4911262;29;20509;-75
2023/05/11 04:52:38;;;;;;;25.08;11.45;;;12.30;99.90;;;;;;4883969;29;20043;-72
2023/05/11 04:55:06;;;;;;;28.20;12.30;;;12.50;99.90;;;;;;4924286;29;20103;-72
2023/05/11 04:57:34;;;;;;;30.85;12.23;;;12.60;99.90;;;;;;4913699;29;20052;-76
2023/05/11 05:00:03;;;;;;;35.17;12.00;;;12.80;99.90;;;;;;4907396;29;20143;-76
2023/05/11 05:02:35;;;;;;;32.75;14.57;;;12.90;99.90;;;;;;4903504;29;20048;-71
2023/05/11 05:05:03;;;;;;;27.45;12.52;;;13.00;99.90;;;;;;4901655;29;20159;-68
2023/05/11 05:07:32;;;;;;;24.75;12.70;;;13.20;99.90;;;;;;4906964;29;20052;-68
2023/05/11 05:09:59;;;;;;;24.98;11.02;;;13.30;99.30;;;;;;4908362;29;20048;-68
2023/05/11 05:12:26;;;;;;;31.92;11.10;;;13.50;97.00;;;;;;4899633;29;20044;-69
2023/05/11 05:14:54;;;;;;;21.05;10.05;;;13.60;95.40;;;;;;4907926;29;20048;-70
2023/05/11 05:17:21;;;;;;;18.65;9.93;;;13.70;94.10;;;;;;4897072;29;20130;-70
2023/05/11 05:20:09;;;;;;;26.45;9.30;;;13.90;91.20;;;;;;4902098;29;20048;-70
2023/05/11 05:22:38;;;;;;;17.98;9.38;;;14.10;89.60;;;;;;4890780;29;20134;-74
2023/05/11 05:25:07;;;;;;;23.42;10.55;;;14.40;85.90;;;;;;4918361;29;20139;-74
2023/05/11 05:27:35;;;;;;;23.92;10.63;;;14.70;83.10;;;;;;4903788;29;20052;-74
2023/05/11 05:30:06;;;;;;;21.67;10.95;;;15.00;81.60;;;;;;4909413;29;20080;-75
2023/05/11 05:32:34;;;;;;;21.75;10.52;;;15.30;79.50;;;;;;4910379;29;20462;-74
2023/05/11 05:35:03;;;;;;;29.98;10.18;;;15.60;77.80;;;;;;4926631;29;20048;-74
2023/05/11 05:37:32;;;;;;;36.67;11.38;;;15.90;77.80;;;;;;4894791;29;20059;-75
2023/05/11 05:39:59;;;;;;;33.38;12.85;;;16.20;71.20;;;;;;4911375;29;20147;-75
2023/05/11 05:42:27;;;;;;;38.90;12.38;;;16.50;68.30;;;;;;4910256;29;20569;-74
2023/05/11 05:44:54;;;;;;;32.53;12.55;;;16.90;69.10;;;;;;4926234;29;20048;-73
2023/05/11 05:47:22;;;;;;;37.17;13.63;;;17.30;70.60;;;;;;4912007;29;20084;-76
2023/05/11 05:49:50;;;;;;;49.25;14.65;;;17.70;66.70;;;;;;4881819;29;20079;-74
2023/05/11 05:52:19;;;;;;;37.67;14.00;;;18.20;63.00;;;;;;4928484;29;20048;-74
2023/05/11 05:54:48;;;;;;;44.30;13.65;;;18.80;60.40;;;;;;4905442;29;20049;-73
2023/05/11 05:57:15;;;;;;;32.25;11.93;;;19.10;57.70;;;;;;4917418;29;20064;-74
2023/05/11 05:59:44;;;;;;;26.77;13.45;;;19.40;55.60;;;;;;4898903;29;20052;-75
2023/05/11 06:02:12;;;;;;;32.72;12.93;;;19.70;55.70;;;;;;4930489;29;20075;-75
2023/05/11 06:04:40;;;;;;;30.70;10.38;;;19.90;55.60;;;;;;4896772;29;20052;-75
2023/05/11 06:07:08;;;;;;;21.08;10.18;;;20.20;53.90;;;;;;4900056;29;20059;-75
2023/05/11 06:09:37;;;;;;;34.00;9.63;;;20.70;52.00;;;;;;4916531;29;20141;-75
2023/05/11 06:12:04;;;;;;;28.00;9.75;;;21.10;51.30;;;;;;4914534;29;20055;-75
2023/05/11 06:14:35;;;;;;;10.98;6.82;;;21.40;51.40;;;;;;4931944;29;20048;-75
2023/05/11 06:17:02;;;;;;;21.95;7.28;;;21.70;49.00;;;;;;4915294;29;20568;-76
2023/05/11 06:19:30;;;;;;;16.98;7.97;;;21.90;48.40;;;;;;4915750;29;20063;-75
2023/05/11 06:21:58;;;;;;;27.05;13.40;;;22.10;47.40;;;;;;4899947;29;20513;-75
2023/05/11 06:24:26;;;;;;;22.02;7.28;;;22.20;47.60;;;;;;4931951;29;20115;-77
2023/05/11 06:26:55;;;;;;;20.25;7.05;;;22.40;47.40;;;;;;4908999;29;20052;-75
2023/05/11 06:29:23;;;;;;;19.30;6.25;;;22.90;47.70;;;;;;4899507;29;20461;-76
2023/05/11 06:31:53;;;;;;;17.92;6.55;;;23.10;46.30;;;;;;4908819;29;20052;-75
2023/05/11 06:34:21;;;;;;;14.15;6.32;;;23.40;45.20;;;;;;4902200;29;20529;-74
2023/05/11 06:36:49;;;;;;;24.65;6.88;;;23.60;45.00;;;;;;4910034;29;20612;-74
2023/05/11 06:39:16;;;;;;;16.88;6.18;;;23.70;45.50;;;;;;4912190;29;20566;-75
2023/05/11 06:41:44;;;;;;;20.67;5.88;;;23.80;44.60;;;;;;4905686;29;20072;-75
2023/05/11 06:44:13;;;;;;;8.65;5.70;;;24.10;44.80;;;;;;4909317;29;20052;-74
2023/05/11 06:46:44;;;;;;;17.23;6.00;;;24.30;44.80;;;;;;4906429;29;20067;-72
2023/05/11 06:49:11;;;;;;;23.02;6.40;;;24.30;44.00;;;;;;4920508;29;20108;-72
2023/05/11 06:51:38;;;;;;;17.17;6.38;;;24.60;44.20;;;;;;4906753;29;20056;-73
2023/05/11 06:54:06;;;;;;;15.25;5.80;;;24.70;44.40;;;;;;4908092;29;20411;-69
2023/05/11 06:56:35;;;;;;;14.55;5.60;;;24.60;45.20;;;;;;4889281;29;20051;-69
2023/05/11 06:59:03;;;;;;;13.57;5.22;;;24.70;45.30;;;;;;4909741;29;20048;-69
2023/05/11 07:01:31;;;;;;;10.73;4.90;;;24.90;45.50;;;;;;4915593;29;20056;-70
2023/05/11 07:03:58;;;;;;;11.82;4.55;;;25.10;45.20;;;;;;4909613;29;20127;-69
2023/05/11 07:06:26;;;;;;;13.68;6.07;;;25.20;45.40;;;;;;4917235;29;20052;-69
2023/05/11 07:08:53;;;;;;;8.52;4.70;;;25.30;45.60;;;;;;4900102;29;20159;-68
2023/05/11 07:11:20;;;;;;;10.95;5.68;;;25.30;47.00;;;;;;4916075;29;20056;-70
2023/05/11 07:13:47;;;;;;;13.90;4.93;;;25.10;46.60;;;;;;4914577;29;20048;-69
2023/05/11 07:16:14;;;;;;;12.18;6.30;;;24.90;47.00;;;;;;4902760;29;20052;-69
2023/05/11 07:18:43;;;;;;;17.13;5.88;;;24.60;47.40;;;;;;4895796;29;20060;-68
2023/05/11 07:21:10;;;;;;;13.20;5.85;;;24.50;47.60;;;;;;4906320;29;20107;-69
2023/05/11 07:23:37;;;;;;;17.25;5.72;;;24.60;48.10;;;;;;4906148;29;20072;-69
2023/05/11 07:26:07;;;;;;;14.93;5.57;;;24.60;48.30;;;;;;4900853;29;20049;-69
2023/05/11 07:28:35;;;;;;;9.73;5.07;;;24.50;48.80;;;;;;4895918;29;20490;-69
2023/05/11 07:31:02;;;;;;;14.63;5.30;;;24.10;48.20;;;;;;4907586;29;20100;-69
2023/05/11 07:33:29;;;;;;;14.20;5.78;;;23.60;49.50;;;;;;4914811;29;20059;-68
2023/05/11 07:35:58;;;;;;;10.20;5.03;;;24.00;50.70;;;;;;4928202;29;20107;-69
2023/05/11 07:38:25;;;;;;;13.88;5.22;;;24.80;50.00;;;;;;4914389;29;20075;-69
2023/05/11 07:40:52;;;;;;;12.13;4.97;;;25.50;48.70;;;;;;4912098;29;20044;-69
2023/05/11 07:43:19;;;;;;;17.05;5.13;;;26.00;48.30;;;;;;4914268;29;20516;-69
2023/05/11 07:45:47;;;;;;;7.70;4.32;;;26.20;46.80;;;;;;4909901;29;20056;-69
2023/05/11 07:48:14;;;;;;;8.13;4.57;;;26.50;46.90;;;;;;4900021;29;20162;-70
2023/05/11 07:50:42;;;;;;;8.20;4.60;;;26.80;45.60;;;;;;4914386;29;20470;-68
2023/05/11 07:53:11;;;;;;;9.52;4.85;;;26.90;46.10;;;;;;4911068;29;20455;-69
2023/05/11 07:55:38;;;;;;;15.95;7.70;;;27.20;45.30;;;;;;4917496;29;20139;-70
2023/05/11 07:58:05;;;;;;;8.88;4.07;;;27.40;44.90;;;;;;4911316;29;20108;-69
2023/05/11 08:00:34;;;;;;;9.30;3.78;;;27.40;44.60;;;;;;4914535;29;20044;-69
2023/05/11 08:03:02;;;;;;;7.82;4.05;;;27.40;44.20;;;;;;4928565;29;20486;-69
2023/05/11 08:05:31;;;;;;;14.52;4.20;;;27.60;44.60;;;;;;4928509;29;20047;-71
2023/05/11 08:07:59;;;;;;;7.35;3.90;;;27.70;44.20;;;;;;4913087;29;20612;-70
2023/05/11 08:10:27;;;;;;;10.63;4.20;;;27.90;44.10;;;;;;4913039;29;20056;-70
2023/05/11 08:12:54;;;;;;;6.43;4.03;;;28.30;43.90;;;;;;4902780;29;20036;-70
2023/05/11 08:15:22;;;;;;;7.68;4.18;;;28.40;43.20;;;;;;4913243;29;20517;-68
2023/05/11 08:17:49;;;;;;;6.47;4.20;;;28.50;43.40;;;;;;4907591;29;20470;-68
2023/05/11 08:20:16;;;;;;;7.95;4.47;;;28.80;43.00;;;;;;4912733;29;20048;-69
2023/05/11 08:22:44;;;;;;;10.60;4.32;;;29.00;42.80;;;;;;4910071;29;20052;-67
2023/05/11 08:25:12;;;;;;;7.28;4.40;;;29.00;41.90;;;;;;4909565;29;20051;-70
2023/05/11 08:27:41;;;;;;;8.43;4.22;;;29.20;42.50;;;;;;4914492;29;20537;-68
2023/05/11 08:30:10;;;;;;;9.13;3.95;;;29.40;41.80;;;;;;4894639;29;20055;-68
2023/05/11 08:32:38;;;;;;;10.05;3.72;;;29.70;41.60;;;;;;4908525;29;20577;-69
2023/05/11 08:35:06;;;;;;;8.65;4.13;;;29.80;41.20;;;;;;4912992;29;20044;-69
2023/05/11 08:37:33;;;;;;;10.82;4.03;;;30.10;41.90;;;;;;4913534;29;20111;-68
2023/05/11 08:40:00;;;;;;;11.02;4.65;;;30.10;40.60;;;;;;4909685;29;20075;-69
2023/05/11 08:42:32;;;;;;;11.68;3.88;;;30.20;41.40;;;;;;4913641;29;20044;-69
2023/05/11 08:45:02;;;;;;;12.15;4.38;;;30.30;40.60;;;;;;4911887;29;20115;-73
2023/05/11 08:47:33;;;;;;;7.05;4.50;;;30.40;41.00;;;;;;4914476;29;20526;-72
2023/05/11 08:50:00;;;;;;;14.02;4.55;;;30.50;40.30;;;;;;4910924;29;20142;-72
2023/05/11 08:52:27;;;;;;;9.80;4.45;;;30.60;40.00;;;;;;4911536;29;20535;-73
2023/05/11 08:54:55;;;;;;;10.40;4.43;;;30.90;40.30;;;;;;4911949;29;20048;-72
2023/05/11 08:57:23;;;;;;;11.82;4.40;;;31.00;40.20;;;;;;4893994;29;20601;-73
2023/05/11 08:59:53;;;;;;;15.00;4.25;;;31.30;40.00;;;;;;4904677;29;20076;-72
2023/05/11 09:02:21;;;;;;;7.53;3.88;;;31.30;39.80;;;;;;4910146;29;20060;-72
2023/05/11 09:04:50;;;;;;;7.43;3.97;;;31.60;41.10;;;;;;4905699;29;20056;-72
2023/05/11 09:07:19;;;;;;;10.43;4.05;;;31.90;39.10;;;;;;4912648;29;20071;-68
2023/05/11 09:09:47;;;;;;;9.43;4.72;;;32.20;39.20;;;;;;4896163;29;20048;-69
2023/05/11 09:12:15;;;;;;;19.23;4.28;;;32.30;38.70;;;;;;4913656;29;20147;-69
2023/05/11 09:14:42;;;;;;;10.13;3.53;;;32.40;39.30;;;;;;4912634;29;20497;-69
2023/05/11 09:17:09;;;;;;;7.50;3.42;;;32.40;37.80;;;;;;4912899;29;20052;-69
2023/05/11 09:19:57;;;;;;;7.70;3.53;;;32.20;37.80;;;;;;4909753;29;20452;-70
2023/05/11 09:22:24;;;;;;;6.35;4.10;;;31.60;38.20;;;;;;4906293;29;20063;-68
2023/05/11 09:24:52;;;;;;;6.80;3.08;;;32.20;38.70;;;;;;4903369;29;20107;-69
2023/05/11 09:27:19;;;;;;;10.32;3.35;;;32.60;37.30;;;;;;4912807;29;20067;-69
2023/05/11 09:29:47;;;;;;;7.05;3.10;;;32.80;37.10;;;;;;4913720;29;20258;-69
2023/05/11 09:32:15;;;;;;;5.80;3.28;;;33.00;37.10;;;;;;4910511;29;20056;-70
2023/05/11 09:34:44;;;;;;;10.65;3.20;;;33.00;36.90;;;;;;4923275;29;20052;-70
2023/05/11 09:37:16;;;;;;;6.72;3.60;;;33.10;36.20;;;;;;4912813;29;20079;-70
2023/05/11 09:39:44;;;;;;;7.45;2.58;;;33.20;36.30;;;;;;4912306;29;20490;-71
2023/05/11 09:42:13;;;;;;;11.75;2.88;;;33.00;35.10;;;;;;4905039;29;20091;-70
2023/05/11 09:44:41;;;;;;;10.50;2.70;;;32.90;35.10;;;;;;4915048;29;20044;-69
2023/05/11 09:47:13;;;;;;;9.82;3.78;;;33.10;34.60;;;;;;4928496;29;20056;-70
2023/05/11 09:49:42;;;;;;;3.83;3.10;;;32.90;34.90;;;;;;4913119;29;20448;-70
2023/05/11 09:52:12;;;;;;;8.90;3.00;;;32.80;35.60;;;;;;4914001;29;20083;-70
2023/05/11 09:54:44;;;;;;;6.97;3.10;;;33.00;35.50;;;;;;4915270;29;20056;-70
2023/05/11 09:57:23;;;;;;;5.50;2.78;;;33.00;35.60;;;;;;4914842;29;20539;-70
2023/05/11 09:59:51;;;;;;;3.20;2.90;;;33.10;35.50;;;;;;4913547;29;20103;-69
2023/05/11 10:02:21;;;;;;;6.03;2.58;;;33.20;35.70;;;;;;4896164;29;20048;-70
2023/05/11 10:04:50;;;;;;;3.47;2.83;;;33.30;34.40;;;;;;4899892;29;20053;-70
2023/05/11 10:07:27;;;;;;;14.88;2.90;;;33.20;33.90;;;;;;4911471;29;20048;-69
2023/05/11 10:09:56;;;;;;;4.90;2.60;;;33.10;34.10;;;;;;4916144;29;20048;-69
2023/05/11 10:12:25;;;;;;;6.32;3.00;;;33.00;34.60;;;;;;4917367;29;20055;-69
2023/05/11 10:14:54;;;;;;;6.45;2.75;;;33.20;33.90;;;;;;4914366;29;20048;-70
2023/05/11 10:17:22;;;;;;;12.82;3.15;;;33.20;34.10;;;;;;4916204;29;20059;-71
2023/05/11 10:19:49;;;;;;;9.55;3.10;;;33.30;34.30;;;;;;4912874;29;20052;-70
2023/05/11 10:22:17;;;;;;;8.07;2.78;;;33.40;35.20;;;;;;4917064;29;20048;-70
2023/05/11 10:24:47;;;;;;;5.90;3.10;;;33.50;34.10;;;;;;4915214;29;20052;-71
2023/05/11 10:27:14;;;;;;;8.75;2.95;;;33.70;34.70;;;;;;4916456;29;20475;-71
2023/05/11 10:29:43;;;;;;;6.57;3.25;;;33.70;34.60;;;;;;4913813;29;20087;-70
2023/05/11 10:32:11;;;;;;;5.15;2.90;;;33.60;34.50;;;;;;4915709;29;20398;-70
2023/05/11 10:34:39;;;;;;;13.18;3.63;;;33.50;34.50;;;;;;4905589;29;20459;-70
2023/05/11 10:37:06;;;;;;;5.00;3.00;;;33.60;34.50;;;;;;4906449;29;20048;-70
2023/05/11 10:39:37;;;;;;;6.05;2.90;;;33.70;34.30;;;;;;4915757;29;20139;-69
2023/05/11 10:42:19;;;;;;;9.68;3.42;;;33.80;34.60;;;;;;4915930;29;20064;-70
2023/05/11 10:44:54;;;;;;;;;;;33.90;33.30;;;;;;4909243;29;20057;-71
2023/05/11 10:48:02;;;;;;;7.00;3.03;;;33.70;34.20;;;;;;4910233;29;19927;-71
2023/05/11 10:50:53;;;;;;;10.70;3.45;;;33.80;33.40;;;;;;4862936;29;20049;-71
2023/05/11 10:53:45;;;;;;;14.20;3.30;;;34.00;33.50;;;;;;4896977;29;20474;-71
2023/05/11 10:56:30;;;;;;;5.43;2.70;;;34.20;33.20;;;;;;4912019;29;20059;-71
2023/05/11 10:59:21;;;;;;;8.30;2.72;;;34.30;33.50;;;;;;4907496;29;20045;-69
2023/05/11 11:01:53;;;;;;;10.38;2.80;;;34.50;32.90;;;;;;4900733;29;20578;-70
2023/05/11 11:04:20;;;;;;;8.07;3.15;;;34.50;32.80;;;;;;4903656;29;20052;-69
2023/05/11 11:07:03;;;;;;;8.80;2.65;;;34.80;32.70;;;;;;4907947;29;20140;-69
2023/05/11 11:09:51;;;;;;;9.88;3.20;;;34.70;33.40;;;;;;4907613;29;20056;-69
2023/05/11 11:12:18;;;;;;;11.13;3.03;;;34.70;33.40;;;;;;4907606;29;20048;-68
2023/05/11 11:14:58;;;;;;;10.52;3.00;;;34.80;33.00;;;;;;4909606;29;20079;-68
2023/05/11 11:17:30;;;;;;;5.60;3.10;;;35.10;32.30;;;;;;4908308;29;20050;-69
2023/05/11 11:19:59;;;;;;;8.05;2.80;;;34.90;32.00;;;;;;4915938;29;20048;-68
2023/05/11 11:22:48;;;;;;;6.13;3.05;;;34.60;33.20;;;;;;4914791;29;20539;-69
2023/05/11 11:25:52;;;;;;;4.10;2.97;;;34.00;33.40;;;;;;4910752;29;20048;-70
2023/05/11 11:28:19;;;;;;;5.30;2.80;;;33.30;33.80;;;;;;4911691;29;20070;-72
2023/05/11 11:30:48;;;;;;;7.00;2.90;;;33.20;33.70;;;;;;4908548;29;20048;-72
2023/05/11 11:33:34;;;;;;;5.10;2.65;;;33.90;34.70;;;;;;4914732;29;20048;-72
2023/05/11 11:36:01;;;;;;;11.57;2.95;;;34.50;32.70;;;;;;4929602;29;20139;-72
2023/05/11 11:38:31;;;;;;;6.63;2.65;;;34.70;32.50;;;;;;4914821;29;20467;-74
2023/05/11 11:40:58;;;;;;;6.45;2.53;;;34.80;32.20;;;;;;4913080;29;20054;-73
2023/05/11 11:43:28;;;;;;;12.95;2.92;;;35.10;33.10;;;;;;4908748;29;20439;-74
2023/05/11 11:45:58;;;;;;;14.75;3.75;;;34.80;31.40;;;;;;4915135;29;20048;-73
2023/05/11 11:48:34;;;;;;;19.02;3.03;;;34.00;31.90;;;;;;4907434;29;20052;-73
2023/05/11 11:51:04;;;;;;;9.35;5.45;;;33.10;32.40;;;;;;4908669;29;20052;-74
2023/05/11 11:54:08;;;;;;;8.70;2.72;;;32.70;33.00;;;;;;4907206;29;20126;-74
2023/05/11 11:56:45;;;;;;;8.35;3.22;;;32.90;32.40;;;;;;4911502;29;20063;-74
2023/05/11 11:59:14;;;;;;;10.55;2.63;;;32.80;32.50;;;;;;4910850;29;20048;-72
2023/05/11 12:01:45;;;;;;;19.05;2.72;;;33.40;32.30;;;;;;4910692;29;20138;-74
2023/05/11 12:04:46;;;;;;;8.52;2.85;;;34.20;31.70;;;;;;4907157;29;20052;-73
2023/05/11 12:07:15;;;;;;;9.40;2.92;;;34.50;31.10;;;;;;4907571;29;20052;-73
2023/05/11 12:09:45;;;;;;;11.02;3.28;;;34.40;31.10;;;;;;4906951;29;20044;-72
2023/05/11 12:12:16;;;;;;;9.15;3.10;;;34.60;31.70;;;;;;4906859;29;20514;-73
2023/05/11 12:14:47;;;;;;;7.63;2.72;;;34.60;31.30;;;;;;4910015;29;20131;-74
2023/05/11 12:17:24;;;;;;;8.07;2.75;;;34.00;30.90;;;;;;4913193;29;20059;-73
2023/05/11 12:19:51;;;;;;;13.32;2.70;;;33.70;31.90;;;;;;4908607;29;20497;-73
2023/05/11 12:22:23;;;;;;;12.80;3.90;;;33.90;31.30;;;;;;4910229;29;20060;-73
2023/05/11 12:24:50;;;;;;;11.00;3.40;;;34.00;31.30;;;;;;4908438;29;20548;-73
2023/05/11 12:27:18;;;;;;;10.85;3.25;;;34.20;31.70;;;;;;4910104;29;20051;-73
2023/05/11 12:29:49;;;;;;;10.05;2.63;;;33.70;31.10;;;;;;4905769;29;20051;-75
2023/05/11 12:32:26;;;;;;;7.68;2.60;;;33.20;31.80;;;;;;4924793;29;20087;-73
2023/05/11 12:35:01;;;;;;;6.82;2.78;;;33.30;31.80;;;;;;4909748;29;20052;-76
2023/05/11 12:37:35;;;;;;;15.80;3.28;;;33.50;31.80;;;;;;4907739;29;20441;-72
2023/05/11 12:40:02;;;;;;;11.70;3.20;;;33.60;31.80;;;;;;4911812;29;20498;-75
2023/05/11 12:42:31;;;;;;;12.85;3.75;;;33.20;31.50;;;;;;4908621;29;20060;-71
2023/05/11 12:44:59;;;;;;;7.85;3.33;;;32.80;32.00;;;;;;4911934;29;20101;-74
2023/05/11 12:47:27;;;;;;;10.35;3.05;;;32.90;32.50;;;;;;4909902;29;20905;-70
2023/05/11 12:49:55;;;;;;;10.15;3.47;;;33.10;32.20;;;;;;4910979;29;20427;-71
2023/05/11 12:52:25;;;;;;;9.57;3.10;;;33.60;32.20;;;;;;4910576;29;20509;-70
2023/05/11 12:54:53;;;;;;;6.13;3.15;;;34.00;32.00;;;;;;4905583;29;21063;-70